Burksville, Illinois
Current Conditions -  °F | °C
As of 5:53 PM on Thursday 27 Nov 2014 (Local Time) from KCPS Reporting Station
Clear Clear  
Wind Chill: 23°   Ceiling: Unl
Heat Index: 30°   Visibility: 10mi
Dew Point: 20°   Wind: 7mph
Humidity: 66%   Direction: 350°N
Pressure: 30.48"   Gusts: NA
Location:  38.3034°N, 90.1358°W
Report Text: KCPS 272353Z 35006KT 10SM CLR M01/M07 A3048 RMK AO2 SLP325 T10111067 10011 21011 53008
Loading
Personal Weather Stations






























Interactive Weather Map New forecast layout! Learn more

10-Day Weather Forecast

Advertisements
Track Severe Weather on mobile